Sand Lake, Florida
Current Conditions -  °F | °C
As of 7:53 PM on Friday 26 Dec 2014 (Local Time) from KMCO Reporting Station
Overcast Overcast  
Wind Chill: 20°   Ceiling: 4800
Heat Index: 20°   Visibility: 10mi
Dew Point: 16°   Wind: 9mph
Humidity: 78%   Direction: 20°NNE
Pressure: 30.24"   Gusts: NA
Location:  28.4565°N, 81.4676°W
Report Text: KMCO 270053Z 02008KT 10SM SCT034 OVC048 20/16 A3024 RMK AO2 SLP237 T02000161 $
Loading
Personal Weather Stations






























Interactive Weather Map New forecast layout! Learn more

10-Day Weather Forecast

Advertisements
Track Severe Weather on mobile